00:36
Airports
History
Links
Donate
Help keep this website running!
PayPal
Bitcoin
Information on this page is community maintained and may be outdated or inaccurate and is intended for reference only or PC simulator navigating.
Always use approved charts for navigating.
SBBQ
MAJOR BRIGADEIRO DOORGAL BORGES
MAJOR BRIGADEIRO DOORGAL BORGES (SBBQ)
Barbacena, Minas Gerais, Brazil (36200)
(C)
Lat/Lng:21° 16' 1.8" S / 43° 45' 39.75" W
-21.267167 / -43.761042
Elevation:3657'ft 1115mMSL
ID / ICAO:SBBQ
Runways:1
Longest:(18-36) 1,770.3m 5,808ft Asphalt
Controlled:Yes
Distance To
Airport ID:
Airport Radio Frequencies
Tower: 125.9
METARUpdated 07-24-17 23:00 GMT
Altimeter: 30.47
Visibility: 6.2 statute miles
Wind: 3 knots (100°)
Temp: 13°c 55°f
Humidity: 87.6%

METAR: SBBQ 242300Z 10003KT CAVOK 13/11 Q1032

(Powered by phpweather)
Runway 18 / 36
Dimensions:1770.3 x 29.9m 5808' x 98'ft
Surface:Asphalt
Edge Lights:Low intensity
Runway 18 [A]Runway 36 [B]
Heading:162°TH 342°TH
Lat:
Lng:
21° 15' 34.5"S
43° 45' 49.1"W
21° 16' 29.1"S
43° 45' 30.4"W
User Notes and Comments
Google Map
Nearby Airports
(U) SAO JOAO DEL REI 32.5 NM
SNJR WNW 292°
4 Carolina de Assis Repetto 33.3 NM
SJXM SSW 194°
(U) Conselheiro Lafaiete 36.6 NM
SNKF N 356°
(U) Regional da Zona da Mata 41.5 NM
SDZY ESE 114°
(U) Regional da Zona da Mata 41.5 NM
SBZM ESE 114°
4 Fazenda Recreio 42.5 NM
SJJR SW 222°
(C) FRANCISCO DE ASSIS 43.5 NM
SBJF (WX) SE 146°
VFR Chart
Flight Planning at SkyVector.com